Time;durP1;ratioP1;P1;durP2;ratioP2;P2;SDS_P1;SDS_P2;PMS_P1;PMS_P2;Temp;Humidity;BMP_temperature;BMP_pressure;BME280_temperature;BME280_humidity;BME280_pressure;Samples;Min_cycle;Max_cycle;Signal;HPM_P1;HPM_P2
2022/08/13 00:01:19;;;;;;;;;;;23.20;88.10;;;;;;5031636;28;19940;-68
2022/08/13 00:03:46;;;;;;;;;;;23.20;88.00;;;;;;5031328;28;19933;-68
2022/08/13 00:06:40;;;;;;;;;;;23.20;88.00;;;;;;5031287;28;19932;-68
2022/08/13 00:09:04;;;;;;;;;;;23.20;88.20;;;;;;5021058;28;19949;-68
2022/08/13 00:14:17;;;;;;;;;;;23.10;88.50;;;;;;5006197;28;19921;-67
2022/08/13 00:16:44;;;;;;;;;;;23.00;88.60;;;;;;5031014;28;19925;-68
2022/08/13 00:19:11;;;;;;;;;;;23.00;88.80;;;;;;5030770;28;19925;-68
2022/08/13 00:21:37;;;;;;;;;;;23.00;89.00;;;;;;5031042;28;19929;-67
2022/08/13 00:24:06;;;;;;;;;;;23.00;89.00;;;;;;5031104;28;19932;-68
2022/08/13 00:26:33;;;;;;;;;;;22.90;89.00;;;;;;5030942;28;19929;-68
2022/08/13 00:29:00;;;;;;;;;;;22.90;89.20;;;;;;5030701;28;19948;-69
2022/08/13 00:31:27;;;;;;;;;;;22.90;89.20;;;;;;5030627;28;19931;-69
2022/08/13 00:33:54;;;;;;;;;;;22.80;89.30;;;;;;5031277;28;19926;-69
2022/08/13 00:36:23;;;;;;;;;;;22.80;89.60;;;;;;5030581;28;19961;-68
2022/08/13 00:38:53;;;;;;;;;;;22.70;89.70;;;;;;5030893;28;20019;-68
2022/08/13 00:44:02;;;;;;;;;;;22.60;90.00;;;;;;5030210;28;20389;-68
2022/08/13 00:46:28;;;;;;;;;;;22.60;90.10;;;;;;5030443;28;19948;-68
2022/08/13 00:48:54;;;;;;;;;;;22.50;90.50;;;;;;5030226;28;20360;-68
2022/08/13 00:51:22;;;;;;;;;;;22.40;90.20;;;;;;5030593;28;20377;-68
2022/08/13 00:53:49;;;;;;;;;;;22.40;90.30;;;;;;5025726;28;20366;-68
2022/08/13 00:56:17;;;;;;;;;;;22.30;90.40;;;;;;5030679;28;19925;-68
2022/08/13 00:58:46;;;;;;;;;;;22.30;90.50;;;;;;5030177;28;19930;-68
2022/08/13 01:01:13;;;;;;;;;;;22.30;90.60;;;;;;5030362;28;19925;-68
2022/08/13 01:03:39;;;;;;;;;;;22.20;90.70;;;;;;5030441;28;19932;-68
2022/08/13 01:06:07;;;;;;;;;;;22.20;90.90;;;;;;5030264;28;19925;-68
2022/08/13 01:08:36;;;;;;;;;;;22.10;90.90;;;;;;5030387;28;19971;-68
2022/08/13 01:13:39;;;;;;;;;;;21.90;91.20;;;;;;5025070;28;20028;-68
2022/08/13 01:16:13;;;;;;;;;;;21.80;91.30;;;;;;5030183;28;19942;-68
2022/08/13 01:18:42;;;;;;;;;;;21.80;91.40;;;;;;5030445;28;19932;-68
2022/08/13 01:21:10;;;;;;;;;;;21.70;91.60;;;;;;5030086;28;19929;-68
2022/08/13 01:23:39;;;;;;;;;;;21.70;91.70;;;;;;5030595;28;19925;-68
2022/08/13 01:26:05;;;;;;;;;;;21.60;91.80;;;;;;5030375;28;19939;-68
2022/08/13 01:28:33;;;;;;;;;;;21.60;91.90;;;;;;5030428;28;19925;-68
2022/08/13 01:31:04;;;;;;;;;;;21.50;92.10;;;;;;5029924;28;20388;-68
2022/08/13 01:33:35;;;;;;;;;;;21.50;92.10;;;;;;5029974;28;19940;-69
2022/08/13 01:36:03;;;;;;;;;;;21.40;92.30;;;;;;5029203;28;20008;-69
2022/08/13 01:38:30;;;;;;;;;;;21.30;92.50;;;;;;5030243;28;19925;-69
2022/08/13 01:40:58;;;;;;;;;;;21.20;92.60;;;;;;5029988;28;19926;-68
2022/08/13 01:43:28;;;;;;;;;;;21.20;92.70;;;;;;5030476;28;19925;-68
2022/08/13 01:45:55;;;;;;;;;;;21.20;92.80;;;;;;5029944;28;19925;-68
2022/08/13 01:51:08;;;;;;;;;;;21.10;93.00;;;;;;5030096;28;19928;-68
2022/08/13 01:53:34;;;;;;;;;;;21.00;93.20;;;;;;5030063;28;19961;-68
2022/08/13 01:56:03;;;;;;;;;;;21.00;93.20;;;;;;5031284;28;19925;-69
2022/08/13 01:58:30;;;;;;;;;;;20.90;93.40;;;;;;5022780;28;20356;-68
2022/08/13 02:00:59;;;;;;;;;;;20.90;93.50;;;;;;5030226;28;20360;-68
2022/08/13 02:03:26;;;;;;;;;;;20.80;93.60;;;;;;5027934;28;20471;-68
2022/08/13 02:05:55;;;;;;;;;;;20.80;93.80;;;;;;5029925;28;19940;-68
2022/08/13 02:08:23;;;;;;;;;;;20.70;93.80;;;;;;5029765;28;19925;-69
2022/08/13 02:10:50;;;;;;;;;;;20.70;93.90;;;;;;5029670;28;19972;-68
2022/08/13 02:13:20;;;;;;;;;;;20.70;94.10;;;;;;5033177;28;19929;-69
2022/08/13 02:15:47;;;;;;;;;;;20.60;94.20;;;;;;5033804;28;19971;-68
2022/08/13 02:18:17;;;;;;;;;;;20.60;94.30;;;;;;5033105;28;20363;-68
2022/08/13 02:20:45;;;;;;;;;;;20.60;94.40;;;;;;5032943;28;19929;-69
2022/08/13 02:23:16;;;;;;;;;;;20.50;94.40;;;;;;5033475;28;19924;-68
2022/08/13 02:25:45;;;;;;;;;;;20.50;94.50;;;;;;5033134;28;19929;-68
2022/08/13 02:28:14;;;;;;;;;;;20.50;94.60;;;;;;5033131;28;20511;-68
2022/08/13 02:30:43;;;;;;;;;;;20.50;94.70;;;;;;5033075;28;20028;-68
2022/08/13 02:33:10;;;;;;;;;;;20.40;94.70;;;;;;5033286;28;19933;-69
2022/08/13 02:35:37;;;;;;;;;;;20.40;94.90;;;;;;5032834;28;19932;-68
2022/08/13 02:38:05;;;;;;;;;;;20.30;94.90;;;;;;5032649;28;19925;-68
2022/08/13 02:43:17;;;;;;;;;;;20.30;95.00;;;;;;5023520;28;20417;-68
2022/08/13 02:45:45;;;;;;;;;;;20.30;95.00;;;;;;5032716;28;19925;-69
2022/08/13 02:48:12;;;;;;;;;;;20.30;95.10;;;;;;5032589;28;20447;-68
2022/08/13 02:50:42;;;;;;;;;;;20.30;95.20;;;;;;5032692;28;20356;-68
2022/08/13 02:53:09;;;;;;;;;;;20.30;95.20;;;;;;5032647;28;19940;-68
2022/08/13 02:55:36;;;;;;;;;;;20.30;95.30;;;;;;5032949;28;19975;-68
2022/08/13 02:58:04;;;;;;;;;;;20.20;95.70;;;;;;5032370;28;20289;-68
2022/08/13 03:00:31;;;;;;;;;;;20.30;95.30;;;;;;5029070;28;19925;-68
2022/08/13 03:02:59;;;;;;;;;;;20.30;95.40;;;;;;5033017;28;19929;-68
2022/08/13 03:05:30;;;;;;;;;;;20.30;95.40;;;;;;5024788;28;19983;-68
2022/08/13 03:07:56;;;;;;;;;;;20.20;95.40;;;;;;5032604;28;19925;-68
2022/08/13 03:10:25;;;;;;;;;;;20.10;95.50;;;;;;5032431;28;19925;-69
2022/08/13 03:13:05;;;;;;;;;;;20.20;95.60;;;;;;5032324;28;19925;-68
2022/08/13 03:15:33;;;;;;;;;;;20.20;95.50;;;;;;5032214;28;19925;-68
2022/08/13 03:18:01;;;;;;;;;;;20.10;95.60;;;;;;5032235;28;19929;-68
2022/08/13 03:20:28;;;;;;;;;;;20.10;95.70;;;;;;5032006;28;19956;-68
2022/08/13 03:22:56;;;;;;;;;;;20.10;95.80;;;;;;5031845;28;19925;-67
2022/08/13 03:25:25;;;;;;;;;;;20.00;95.90;;;;;;5032132;28;19930;-68
2022/08/13 03:27:53;;;;;;;;;;;20.00;96.00;;;;;;5032105;28;19925;-68
2022/08/13 03:30:21;;;;;;;;;;;19.90;96.10;;;;;;5032147;28;20379;-68
2022/08/13 03:32:48;;;;;;;;;;;19.90;96.20;;;;;;5029227;28;19925;-68
2022/08/13 03:35:17;;;;;;;;;;;19.90;96.20;;;;;;5031835;28;19932;-68
2022/08/13 03:37:45;;;;;;;;;;;19.90;96.30;;;;;;5031646;28;19929;-68
2022/08/13 03:40:12;;;;;;;;;;;19.80;96.50;;;;;;5031618;28;19932;-68
2022/08/13 03:42:40;;;;;;;;;;;19.80;96.60;;;;;;5032030;28;19933;-68
2022/08/13 03:45:08;;;;;;;;;;;19.80;96.50;;;;;;5031790;28;20320;-69
2022/08/13 03:47:34;;;;;;;;;;;19.80;96.50;;;;;;5031642;28;20278;-68
2022/08/13 03:50:02;;;;;;;;;;;19.80;96.50;;;;;;5031710;28;19925;-68
2022/08/13 03:52:31;;;;;;;;;;;19.80;96.70;;;;;;5031906;28;20286;-68
2022/08/13 03:54:57;;;;;;;;;;;19.80;96.70;;;;;;5031479;28;20012;-68
2022/08/13 03:57:24;;;;;;;;;;;19.80;96.70;;;;;;5031667;28;19936;-68
2022/08/13 03:59:51;;;;;;;;;;;19.70;96.80;;;;;;5030909;28;19932;-68
2022/08/13 04:02:18;;;;;;;;;;;19.70;96.80;;;;;;5031453;28;19925;-68
2022/08/13 04:04:47;;;;;;;;;;;19.70;96.90;;;;;;5031628;28;19940;-68
2022/08/13 04:07:15;;;;;;;;;;;19.60;97.00;;;;;;5031489;28;19939;-69
2022/08/13 04:09:44;;;;;;;;;;;19.60;97.10;;;;;;5031176;28;20303;-69
2022/08/13 04:12:12;;;;;;;;;;;19.60;97.20;;;;;;5029370;28;19929;-69
2022/08/13 04:14:39;;;;;;;;;;;19.50;97.30;;;;;;5031574;28;19924;-69
2022/08/13 04:17:08;;;;;;;;;;;19.50;97.30;;;;;;5030855;28;19952;-69
2022/08/13 04:19:36;;;;;;;;;;;19.50;97.40;;;;;;5030938;28;19925;-68
2022/08/13 04:22:03;;;;;;;;;;;19.40;97.50;;;;;;5030890;28;19932;-69
2022/08/13 04:24:30;;;;;;;;;;;19.40;97.70;;;;;;5030869;28;19928;-69
2022/08/13 04:26:59;;;;;;;;;;;19.40;97.70;;;;;;5030866;28;19925;-69
2022/08/13 04:29:25;;;;;;;;;;;19.40;97.80;;;;;;5028796;28;19925;-69
2022/08/13 04:31:53;;;;;;;;;;;19.40;97.80;;;;;;5031127;28;19952;-69
2022/08/13 04:34:20;;;;;;;;;;;19.40;97.80;;;;;;5030449;28;19988;-69
2022/08/13 04:36:48;;;;;;;;;;;19.50;97.90;;;;;;5030109;28;19947;-69
2022/08/13 04:39:14;;;;;;;;;;;19.50;98.00;;;;;;5029542;28;20316;-69
2022/08/13 04:41:41;;;;;;;;;;;19.40;98.00;;;;;;5030215;28;19929;-69
2022/08/13 04:44:09;;;;;;;;;;;19.40;98.00;;;;;;5031961;28;20016;-69
2022/08/13 04:46:35;;;;;;;;;;;19.50;98.00;;;;;;5030474;28;19979;-69
2022/08/13 04:49:03;;;;;;;;;;;19.50;98.00;;;;;;5030614;28;19960;-71
2022/08/13 04:51:31;;;;;;;;;;;19.50;98.00;;;;;;5030609;28;19925;-71
2022/08/13 04:54:00;;;;;;;;;;;19.50;98.20;;;;;;5022471;28;21229;-68
2022/08/13 04:56:26;;;;;;;;;;;19.50;98.20;;;;;;5024264;28;19929;-68
2022/08/13 04:58:53;;;;;;;;;;;19.50;98.30;;;;;;5026270;28;19925;-68
2022/08/13 05:01:21;;;;;;;;;;;19.50;98.30;;;;;;5030208;28;19937;-69
2022/08/13 05:03:48;;;;;;;;;;;19.50;98.20;;;;;;5029539;28;19932;-68
2022/08/13 05:06:19;;;;;;;;;;;19.60;98.40;;;;;;5030042;28;20458;-68
2022/08/13 05:08:46;;;;;;;;;;;19.60;98.30;;;;;;5028569;28;19996;-68
2022/08/13 05:11:13;;;;;;;;;;;19.60;98.40;;;;;;5029785;28;19926;-68
2022/08/13 05:13:40;;;;;;;;;;;19.70;98.30;;;;;;5030271;28;19925;-68
2022/08/13 05:16:08;;;;;;;;;;;19.70;98.40;;;;;;5030575;28;19925;-68
2022/08/13 05:18:37;;;;;;;;;;;19.80;98.30;;;;;;5030009;28;20423;-68
2022/08/13 05:21:05;;;;;;;;;;;19.80;98.30;;;;;;5029748;28;19925;-68
2022/08/13 05:23:33;;;;;;;;;;;19.80;98.30;;;;;;5030131;28;20344;-69
2022/08/13 05:25:59;;;;;;;;;;;19.80;98.40;;;;;;5027143;28;19976;-69
2022/08/13 05:28:26;;;;;;;;;;;19.80;98.40;;;;;;5024299;28;19933;-69
2022/08/13 05:30:53;;;;;;;;;;;19.90;98.60;;;;;;5029726;28;19932;-69
2022/08/13 05:33:21;;;;;;;;;;;20.00;98.60;;;;;;5030013;28;19929;-68
2022/08/13 05:35:50;;;;;;;;;;;20.10;98.30;;;;;;5030123;28;19925;-68
2022/08/13 05:38:20;;;;;;;;;;;20.20;98.40;;;;;;5030077;28;19954;-68
2022/08/13 05:40:47;;;;;;;;;;;20.30;98.40;;;;;;5022501;28;19925;-68
2022/08/13 05:43:15;;;;;;;;;;;20.30;98.50;;;;;;5030047;28;20352;-69
2022/08/13 05:45:42;;;;;;;;;;;20.40;98.40;;;;;;5030819;28;19925;-69
2022/08/13 05:48:09;;;;;;;;;;;20.50;98.70;;;;;;5032120;28;20184;-68
2022/08/13 05:50:37;;;;;;;;;;;20.50;98.40;;;;;;5033858;28;19978;-70
2022/08/13 05:53:10;;;;;;;;;;;20.60;98.40;;;;;;5026419;28;19925;-69
2022/08/13 05:55:38;;;;;;;;;;;20.60;98.50;;;;;;5033825;28;20301;-68
2022/08/13 05:58:05;;;;;;;;;;;20.70;98.50;;;;;;5027199;28;20312;-68
2022/08/13 06:03:27;;;;;;;;;;;20.90;98.40;;;;;;5031977;28;19928;-69
2022/08/13 06:05:54;;;;;;;;;;;20.90;98.30;;;;;;5033802;28;20353;-68
2022/08/13 06:08:28;;;;;;;;;;;21.00;98.20;;;;;;5033331;28;19933;-69
2022/08/13 06:10:55;;;;;;;;;;;21.10;98.20;;;;;;5033629;28;19929;-68
2022/08/13 06:13:22;;;;;;;;;;;21.20;98.00;;;;;;5033159;28;20347;-68
2022/08/13 06:15:57;;;;;;;;;;;21.30;98.20;;;;;;5033640;28;19925;-68
2022/08/13 06:18:25;;;;;;;;;;;21.40;98.00;;;;;;5035048;28;19925;-68
2022/08/13 06:20:53;;;;;;;;;;;21.50;98.00;;;;;;5030155;28;19929;-68
2022/08/13 06:23:22;;;;;;;;;;;21.60;97.70;;;;;;5028632;28;19925;-67
2022/08/13 06:25:52;;;;;;;;;;;21.70;97.70;;;;;;5029477;28;19929;-68
2022/08/13 06:28:20;;;;;;;;;;;21.70;97.70;;;;;;5031417;28;19925;-68
2022/08/13 06:30:48;;;;;;;;;;;21.90;97.20;;;;;;5031750;28;19931;-68
2022/08/13 06:33:15;;;;;;;;;;;21.90;97.30;;;;;;5032139;28;19929;-68
2022/08/13 06:35:43;;;;;;;;;;;22.10;96.90;;;;;;5031937;28;20315;-68
2022/08/13 06:38:10;;;;;;;;;;;22.10;96.90;;;;;;5031865;28;19975;-68
2022/08/13 06:40:40;;;;;;;;;;;22.20;96.60;;;;;;5031226;28;19925;-68
2022/08/13 06:43:09;;;;;;;;;;;22.30;96.60;;;;;;5031926;28;19929;-68
2022/08/13 06:45:36;;;;;;;;;;;22.40;96.30;;;;;;5030299;28;19933;-68
2022/08/13 06:48:02;;;;;;;;;;;22.50;96.20;;;;;;5031531;28;19929;-68
2022/08/13 06:50:34;;;;;;;;;;;22.60;96.20;;;;;;5031612;28;20300;-68
2022/08/13 06:53:03;;;;;;;;;;;22.60;95.90;;;;;;5028555;28;19942;-68
2022/08/13 06:55:30;;;;;;;;;;;22.70;96.10;;;;;;5031664;28;20404;-68
2022/08/13 06:57:57;;;;;;;;;;;22.80;96.00;;;;;;5030374;28;19929;-68
2022/08/13 07:00:26;;;;;;;;;;;22.90;96.10;;;;;;5031312;28;19929;-68
2022/08/13 07:02:53;;;;;;;;;;;23.00;95.60;;;;;;5031760;28;19928;-68
2022/08/13 07:05:31;;;;;;;;;;;23.00;95.60;;;;;;5031484;28;19929;-67
2022/08/13 07:07:59;;;;;;;;;;;23.10;95.80;;;;;;5031103;28;19929;-68
2022/08/13 07:10:27;;;;;;;;;;;23.20;95.30;;;;;;5030025;28;20431;-68
2022/08/13 07:12:54;;;;;;;;;;;23.30;94.90;;;;;;5031219;28;20397;-68
2022/08/13 07:15:22;;;;;;;;;;;23.40;94.80;;;;;;5031370;28;20325;-68
2022/08/13 07:17:51;;;;;;;;;;;23.50;94.70;;;;;;5031356;28;19929;-68
2022/08/13 07:20:17;;;;;;;;;;;23.60;94.70;;;;;;5031008;28;20345;-68
2022/08/13 07:22:45;;;;;;;;;;;23.60;95.00;;;;;;5031294;28;20462;-68
2022/08/13 07:25:13;;;;;;;;;;;23.70;94.60;;;;;;5026358;28;20317;-68
2022/08/13 07:27:40;;;;;;;;;;;23.70;94.70;;;;;;5031038;28;19925;-69
2022/08/13 07:30:07;;;;;;;;;;;23.80;94.50;;;;;;5030815;28;20368;-69
2022/08/13 07:32:37;;;;;;;;;;;23.90;94.50;;;;;;5030865;28;19929;-68
2022/08/13 07:35:08;;;;;;;;;;;23.90;94.60;;;;;;5030674;28;19925;-68
2022/08/13 07:37:35;;;;;;;;;;;24.00;94.80;;;;;;5026227;28;19929;-69
2022/08/13 07:40:02;;;;;;;;;;;24.10;94.70;;;;;;5027486;28;20385;-68
2022/08/13 07:42:31;;;;;;;;;;;24.10;94.50;;;;;;5028032;28;19936;-68
2022/08/13 07:44:58;;;;;;;;;;;24.20;94.60;;;;;;5027228;28;19925;-68
2022/08/13 07:47:26;;;;;;;;;;;24.30;94.80;;;;;;5030722;28;19936;-69
2022/08/13 07:49:54;;;;;;;;;;;24.40;94.40;;;;;;5030238;28;19932;-69
2022/08/13 07:52:22;;;;;;;;;;;24.50;94.60;;;;;;5031090;28;19925;-69
2022/08/13 07:54:49;;;;;;;;;;;24.70;94.70;;;;;;5030917;28;19989;-69
2022/08/13 07:57:17;;;;;;;;;;;24.80;94.50;;;;;;5030762;28;19925;-69
2022/08/13 07:59:44;;;;;;;;;;;25.00;93.70;;;;;;5029274;28;19925;-69
2022/08/13 08:02:12;;;;;;;;;;;25.10;93.70;;;;;;5028345;28;19941;-68
2022/08/13 08:04:41;;;;;;;;;;;25.10;93.30;;;;;;5031055;28;19925;-68
2022/08/13 08:07:09;;;;;;;;;;;25.20;93.30;;;;;;5030194;28;19925;-69
2022/08/13 08:09:37;;;;;;;;;;;25.30;93.00;;;;;;5029020;28;20400;-69
2022/08/13 08:14:49;;;;;;;;;;;25.40;93.30;;;;;;5025313;28;19990;-69
2022/08/13 08:17:16;;;;;;;;;;;25.50;93.40;;;;;;5030218;28;20309;-68
2022/08/13 08:19:43;;;;;;;;;;;25.60;93.30;;;;;;5030049;28;19925;-68
2022/08/13 08:22:10;;;;;;;;;;;25.70;93.00;;;;;;5030175;28;19932;-69
2022/08/13 08:24:39;;;;;;;;;;;25.70;92.70;;;;;;5026828;28;19926;-68
2022/08/13 08:27:09;;;;;;;;;;;25.90;92.40;;;;;;5026942;28;19936;-69
2022/08/13 08:29:37;;;;;;;;;;;25.90;92.40;;;;;;5029487;28;19958;-69
2022/08/13 08:32:07;;;;;;;;;;;26.00;92.40;;;;;;5029923;28;19941;-69
2022/08/13 08:34:34;;;;;;;;;;;26.00;92.60;;;;;;5023023;28;19929;-68
2022/08/13 08:37:01;;;;;;;;;;;26.10;92.30;;;;;;5029907;28;19925;-69
2022/08/13 08:45:01;;;;;;;;;;;26.40;91.90;;;;;;5029641;28;20008;-69
2022/08/13 08:47:28;;;;;;;;;;;26.50;91.30;;;;;;5029329;28;19929;-69
2022/08/13 08:49:56;;;;;;;;;;;26.60;91.20;;;;;;5029232;28;19936;-69
2022/08/13 08:53:19;;;;;;;;;;;26.60;91.10;;;;;;5029615;28;20341;-69
2022/08/13 08:55:11;;;;;;;;;;;26.50;91.30;;;;;;5029274;28;19932;-69
2022/08/13 08:57:44;;;;;;;;;;;26.60;91.40;;;;;;5029447;28;19980;-68
2022/08/13 09:00:14;;;;;;;;;;;26.70;91.30;;;;;;5029273;28;19960;-68
2022/08/13 09:02:41;;;;;;;;;;;26.80;91.00;;;;;;5029495;28;19975;-69
2022/08/13 09:05:08;;;;;;;;;;;26.90;91.00;;;;;;5029625;28;20328;-69
2022/08/13 09:07:37;;;;;;;;;;;27.00;91.10;;;;;;5029335;28;19930;-68
2022/08/13 09:10:04;;;;;;;;;;;27.00;90.80;;;;;;5029201;28;19973;-69
2022/08/13 09:12:31;;;;;;;;;;;27.10;91.00;;;;;;5029320;28;19953;-69
2022/08/13 09:14:59;;;;;;;;;;;27.10;91.40;;;;;;5029174;28;19933;-69
2022/08/13 09:17:27;;;;;;;;;;;27.20;91.20;;;;;;5029009;28;19929;-69
2022/08/13 09:19:54;;;;;;;;;;;27.20;91.30;;;;;;5029017;28;19925;-69
2022/08/13 09:22:21;;;;;;;;;;;27.30;91.50;;;;;;5032956;28;19932;-69
2022/08/13 09:24:48;;;;;;;;;;;27.30;91.40;;;;;;5033399;28;19929;-69
2022/08/13 09:27:17;;;;;;;;;;;27.50;91.00;;;;;;5033227;28;19925;-69
2022/08/13 09:29:44;;;;;;;;;;;27.60;90.50;;;;;;5032713;28;19929;-69
2022/08/13 09:32:15;;;;;;;;;;;27.60;90.70;;;;;;5033384;28;19925;-68
2022/08/13 09:34:44;;;;;;;;;;;27.70;90.70;;;;;;5033066;28;19929;-69
2022/08/13 09:37:12;;;;;;;;;;;27.90;90.60;;;;;;5033223;28;19932;-69
2022/08/13 09:39:43;;;;;;;;;;;28.00;90.30;;;;;;5032659;28;20389;-69
2022/08/13 09:42:12;;;;;;;;;;;28.10;90.30;;;;;;5032744;28;20466;-69
2022/08/13 09:44:42;;;;;;;;;;;28.20;90.50;;;;;;5033310;28;19969;-69
2022/08/13 09:47:10;;;;;;;;;;;28.30;90.20;;;;;;5030441;28;19925;-69
2022/08/13 09:49:38;;;;;;;;;;;28.30;90.10;;;;;;5030966;28;20006;-69
2022/08/13 09:52:05;;;;;;;;;;;28.40;90.50;;;;;;5029539;28;19925;-69
2022/08/13 09:54:33;;;;;;;;;;;28.50;90.40;;;;;;5026882;28;19925;-69
2022/08/13 09:57:00;;;;;;;;;;;28.50;89.60;;;;;;5032914;28;19932;-69
2022/08/13 09:59:26;;;;;;;;;;;28.50;90.00;;;;;;5032556;28;19929;-69
2022/08/13 10:01:56;;;;;;;;;;;28.50;90.10;;;;;;5029439;28;19929;-69
2022/08/13 10:04:22;;;;;;;;;;;28.60;89.80;;;;;;5032659;28;20298;-69
2022/08/13 10:06:51;;;;;;;;;;;28.70;89.50;;;;;;5032534;28;19925;-69
2022/08/13 10:09:17;;;;;;;;;;;28.70;89.40;;;;;;5031824;28;20293;-69
2022/08/13 10:11:44;;;;;;;;;;;28.70;89.50;;;;;;5031030;28;19925;-69
2022/08/13 10:14:11;;;;;;;;;;;28.80;88.80;;;;;;5032476;28;20400;-69
2022/08/13 10:16:38;;;;;;;;;;;28.80;88.60;;;;;;5032353;28;19932;-69
2022/08/13 10:19:05;;;;;;;;;;;28.80;88.50;;;;;;5032004;28;19925;-69
2022/08/13 10:21:32;;;;;;;;;;;28.90;88.60;;;;;;5024892;28;20384;-69
2022/08/13 10:24:00;;;;;;;;;;;29.00;88.20;;;;;;5032554;28;19929;-69
2022/08/13 10:26:27;;;;;;;;;;;29.00;88.40;;;;;;5032179;28;19936;-69
2022/08/13 10:28:54;;;;;;;;;;;29.10;88.70;;;;;;5032145;28;19925;-69
2022/08/13 10:31:27;;;;;;;;;;;29.30;88.10;;;;;;5025338;28;19968;-69
2022/08/13 10:33:54;;;;;;;;;;;29.30;86.60;;;;;;5031160;28;19925;-69
2022/08/13 10:36:21;;;;;;;;;;;29.30;86.90;;;;;;5031974;28;19979;-69
2022/08/13 10:38:48;;;;;;;;;;;29.30;86.70;;;;;;5031668;28;19929;-69
2022/08/13 10:41:16;;;;;;;;;;;29.30;87.00;;;;;;5030783;28;19925;-69
2022/08/13 10:43:43;;;;;;;;;;;29.40;87.30;;;;;;5031858;28;20351;-70
2022/08/13 10:46:12;;;;;;;;;;;29.60;86.80;;;;;;5031602;28;19925;-69
2022/08/13 10:48:39;;;;;;;;;;;29.70;86.60;;;;;;5031709;28;19925;-69
2022/08/13 10:51:06;;;;;;;;;;;29.80;85.90;;;;;;5031800;28;20375;-69
2022/08/13 10:56:20;;;;;;;;;;;29.80;85.90;;;;;;5031757;28;19932;-69
2022/08/13 10:58:47;;;;;;;;;;;30.00;85.60;;;;;;5031745;28;19929;-68
2022/08/13 11:01:15;;;;;;;;;;;30.10;84.60;;;;;;5031756;28;20458;-69
2022/08/13 11:03:44;;;;;;;;;;;30.10;84.30;;;;;;5032008;28;20332;-69
2022/08/13 11:06:12;;;;;;;;;;;30.30;84.60;;;;;;5031750;28;20340;-69
2022/08/13 11:08:39;;;;;;;;;;;30.40;85.40;;;;;;5031179;28;19925;-69
2022/08/13 11:11:06;;;;;;;;;;;30.50;85.70;;;;;;5031223;28;19926;-69
2022/08/13 11:13:36;;;;;;;;;;;30.80;84.20;;;;;;5031386;28;19961;-69
2022/08/13 11:16:03;;;;;;;;;;;30.90;83.10;;;;;;5030905;28;19929;-69
2022/08/13 11:18:31;;;;;;;;;;;31.00;83.40;;;;;;5031112;28;20347;-69
2022/08/13 11:21:06;;;;;;;;;;;31.20;82.90;;;;;;5031058;28;19929;-69
2022/08/13 11:23:33;;;;;;;;;;;31.30;82.90;;;;;;5023918;28;20381;-69
2022/08/13 11:25:59;;;;;;;;;;;31.50;83.20;;;;;;5031150;28;19981;-69
2022/08/13 11:28:26;;;;;;;;;;;31.60;82.90;;;;;;5030797;28;19933;-69
2022/08/13 11:30:55;;;;;;;;;;;31.40;82.20;;;;;;5031134;28;19925;-69
2022/08/13 11:33:23;;;;;;;;;;;31.30;82.30;;;;;;5030770;28;19941;-69
2022/08/13 11:35:51;;;;;;;;;;;31.50;83.30;;;;;;5030874;28;19925;-69
2022/08/13 11:38:19;;;;;;;;;;;32.10;82.10;;;;;;5030763;28;19983;-70
2022/08/13 11:40:46;;;;;;;;;;;34.50;80.60;;;;;;5030710;28;19924;-69
2022/08/13 11:43:13;;;;;;;;;;;36.70;78.40;;;;;;5029724;28;20400;-69
2022/08/13 11:45:40;;;;;;;;;;;38.40;76.40;;;;;;5030891;28;19925;-69
2022/08/13 11:48:08;;;;;;;;;;;39.50;75.70;;;;;;5030334;28;19933;-69
2022/08/13 11:50:35;;;;;;;;;;;38.50;75.90;;;;;;5030391;28;19925;-69
2022/08/13 11:53:02;;;;;;;;;;;39.60;75.30;;;;;;5024416;28;19925;-69
2022/08/13 11:55:29;;;;;;;;;;;40.60;73.50;;;;;;5030706;28;20355;-69
2022/08/13 11:57:59;;;;;;;;;;;42.10;72.70;;;;;;5030397;28;19932;-69
2022/08/13 12:00:26;;;;;;;;;;;43.10;71.20;;;;;;5030329;28;20390;-70
2022/08/13 12:02:53;;;;;;;;;;;43.50;71.80;;;;;;5030450;28;20469;-69
2022/08/13 12:05:21;;;;;;;;;;;44.30;70.20;;;;;;5030405;28;19929;-69
2022/08/13 12:07:48;;;;;;;;;;;43.90;68.00;;;;;;5030410;28;19978;-69
2022/08/13 12:10:16;;;;;;;;;;;43.00;68.90;;;;;;5029989;28;19979;-69
2022/08/13 12:12:43;;;;;;;;;;;43.30;69.30;;;;;;5030700;28;19925;-69
2022/08/13 12:15:10;;;;;;;;;;;43.30;68.40;;;;;;5024859;28;19932;-69
2022/08/13 12:17:42;;;;;;;;;;;42.50;68.50;;;;;;5029836;28;19933;-70
2022/08/13 12:20:09;;;;;;;;;;;43.20;68.30;;;;;;5030097;28;19961;-70
2022/08/13 12:22:38;;;;;;;;;;;44.00;68.10;;;;;;5030112;28;20427;-69
2022/08/13 12:25:05;;;;;;;;;;;44.00;66.60;;;;;;5030348;28;19925;-70
2022/08/13 12:27:32;;;;;;;;;;;43.90;67.30;;;;;;5028313;28;19975;-69
2022/08/13 12:29:59;;;;;;;;;;;42.70;67.50;;;;;;5029615;28;19928;-69
2022/08/13 12:32:25;;;;;;;;;;;41.40;67.80;;;;;;5029602;28;19933;-70
2022/08/13 12:34:52;;;;;;;;;;;42.10;68.00;;;;;;5030147;28;19971;-69
2022/08/13 12:37:19;;;;;;;;;;;42.80;66.70;;;;;;5029499;28;20396;-70
2022/08/13 12:39:47;;;;;;;;;;;43.40;65.70;;;;;;5029424;28;19925;-70
2022/08/13 12:42:14;;;;;;;;;;;43.00;66.30;;;;;;5029900;28;19925;-70
2022/08/13 12:44:40;;;;;;;;;;;43.90;66.10;;;;;;5029579;28;19925;-70
2022/08/13 12:47:07;;;;;;;;;;;44.40;65.30;;;;;;5029665;28;19929;-70
2022/08/13 12:49:34;;;;;;;;;;;44.10;65.50;;;;;;5029472;28;19932;-70
2022/08/13 12:52:01;;;;;;;;;;;44.70;65.50;;;;;;5029871;28;19925;-70
2022/08/13 12:54:28;;;;;;;;;;;44.90;65.50;;;;;;5029819;28;19937;-70
2022/08/13 12:56:56;;;;;;;;;;;43.90;65.60;;;;;;5028853;28;19975;-70
2022/08/13 12:59:23;;;;;;;;;;;42.60;65.30;;;;;;5028844;28;19925;-70
2022/08/13 13:01:53;;;;;;;;;;;42.50;65.90;;;;;;5029806;28;19937;-70
2022/08/13 13:04:20;;;;;;;;;;;42.90;66.30;;;;;;5029334;28;20306;-70
2022/08/13 13:06:47;;;;;;;;;;;43.40;65.80;;;;;;5029438;28;19926;-70
2022/08/13 13:09:14;;;;;;;;;;;43.80;65.20;;;;;;5029055;28;19929;-70
2022/08/13 13:11:41;;;;;;;;;;;44.10;64.30;;;;;;5029562;28;19931;-70
2022/08/13 13:14:10;;;;;;;;;;;44.40;64.80;;;;;;5026793;28;19925;-70
2022/08/13 13:16:38;;;;;;;;;;;45.30;64.60;;;;;;5029623;28;19960;-71
2022/08/13 13:19:06;;;;;;;;;;;44.80;63.60;;;;;;5028864;28;19929;-70
2022/08/13 13:21:34;;;;;;;;;;;44.10;64.70;;;;;;5022101;28;20360;-70
2022/08/13 13:24:01;;;;;;;;;;;43.40;65.30;;;;;;5029189;28;19932;-70
2022/08/13 13:26:28;;;;;;;;;;;42.30;65.80;;;;;;5028659;28;19925;-70
2022/08/13 13:28:56;;;;;;;;;;;42.10;66.50;;;;;;5028973;28;19925;-71
2022/08/13 13:31:25;;;;;;;;;;;43.20;65.40;;;;;;5029400;28;19979;-71
2022/08/13 13:33:52;;;;;;;;;;;44.20;64.70;;;;;;5029182;28;19925;-70
2022/08/13 13:36:19;;;;;;;;;;;44.70;64.50;;;;;;5029051;28;19925;-70
2022/08/13 13:38:45;;;;;;;;;;;44.90;64.30;;;;;;5028906;28;19925;-70
2022/08/13 13:41:12;;;;;;;;;;;45.20;64.50;;;;;;5029221;28;19968;-71
2022/08/13 13:43:39;;;;;;;;;;;45.50;64.40;;;;;;5029513;28;19929;-70
2022/08/13 13:46:06;;;;;;;;;;;45.30;63.70;;;;;;5029226;28;19929;-70
2022/08/13 13:48:36;;;;;;;;;;;45.00;63.80;;;;;;5029163;28;20027;-70
2022/08/13 13:51:04;;;;;;;;;;;44.60;63.60;;;;;;5029023;28;19925;-70
2022/08/13 13:53:33;;;;;;;;;;;44.40;63.00;;;;;;5028969;28;19925;-70
2022/08/13 13:56:00;;;;;;;;;;;43.20;64.40;;;;;;5029248;28;19948;-71
2022/08/13 13:58:28;;;;;;;;;;;43.30;64.80;;;;;;5028702;28;19929;-70
2022/08/13 14:00:55;;;;;;;;;;;44.00;64.50;;;;;;5029312;28;19925;-71
2022/08/13 14:03:24;;;;;;;;;;;44.40;63.80;;;;;;5024610;28;20433;-70
2022/08/13 14:05:52;;;;;;;;;;;44.00;63.70;;;;;;5028913;28;20289;-71
2022/08/13 14:08:19;;;;;;;;;;;43.50;64.20;;;;;;5032117;28;19929;-71
2022/08/13 14:10:46;;;;;;;;;;;43.10;64.40;;;;;;5032786;28;19925;-70
2022/08/13 14:13:13;;;;;;;;;;;42.70;64.10;;;;;;5032882;28;19925;-70
2022/08/13 14:15:42;;;;;;;;;;;42.90;64.50;;;;;;5027758;28;20361;-71
2022/08/13 14:18:10;;;;;;;;;;;43.30;64.20;;;;;;5030072;28;19925;-70
2022/08/13 14:20:40;;;;;;;;;;;43.90;64.20;;;;;;5033398;28;19925;-70
2022/08/13 14:23:09;;;;;;;;;;;44.20;63.40;;;;;;5033652;28;19975;-71
2022/08/13 14:25:36;;;;;;;;;;;44.60;64.10;;;;;;5032466;28;20401;-71
2022/08/13 14:28:03;;;;;;;;;;;44.90;64.00;;;;;;5032324;28;19925;-71
2022/08/13 14:30:29;;;;;;;;;;;44.00;63.60;;;;;;5032260;28;20032;-71
2022/08/13 14:32:56;;;;;;;;;;;44.20;64.40;;;;;;5032247;28;19932;-70
2022/08/13 14:35:23;;;;;;;;;;;43.40;63.80;;;;;;5031886;28;19925;-71
2022/08/13 14:37:50;;;;;;;;;;;43.90;64.70;;;;;;5031803;28;19933;-71
2022/08/13 14:40:19;;;;;;;;;;;45.00;63.80;;;;;;5032053;28;19926;-71
2022/08/13 14:42:48;;;;;;;;;;;45.90;62.80;;;;;;5032165;28;20400;-71
2022/08/13 14:48:00;;;;;;;;;;;45.90;61.80;;;;;;5031871;28;19975;-70
2022/08/13 14:50:28;;;;;;;;;;;44.90;62.10;;;;;;5031768;28;19987;-70